createdAt,value
2022-12-13T00:01:04.336Z,82.68
2022-12-13T00:05:08.139Z,82.65
2022-12-13T00:10:07.912Z,82.66
2022-12-13T00:15:08.680Z,82.69
2022-12-13T00:20:08.483Z,82.68
2022-12-13T00:25:08.265Z,82.71
2022-12-13T00:30:08.013Z,82.7
2022-12-13T00:35:07.769Z,82.7
2022-12-13T00:40:08.610Z,82.69
2022-12-13T00:45:08.417Z,82.67
2022-12-13T00:50:08.207Z,82.65
2022-12-13T00:55:07.966Z,82.64
2022-12-13T01:00:07.736Z,82.67
2022-12-13T01:05:08.605Z,82.67
2022-12-13T01:10:08.419Z,82.64
2022-12-13T01:15:08.189Z,82.63
2022-12-13T01:20:07.981Z,82.59
2022-12-13T01:25:07.805Z,82.62
2022-12-13T01:30:08.570Z,82.61
2022-12-13T01:35:08.342Z,82.62
2022-12-13T01:40:15.898Z,82.61
2022-12-13T01:45:08.268Z,82.59
2022-12-13T01:50:08.061Z,82.62
2022-12-13T01:55:07.829Z,82.64
2022-12-13T02:00:08.625Z,82.62
2022-12-13T02:05:08.406Z,82.64
2022-12-13T02:10:08.213Z,82.63
2022-12-13T02:15:07.971Z,82.63
2022-12-13T02:20:07.763Z,82.62
2022-12-13T02:25:08.549Z,82.61
2022-12-13T02:30:08.308Z,82.61
2022-12-13T02:35:09.199Z,82.62
2022-12-13T02:40:07.971Z,82.61
2022-12-13T02:45:07.802Z,82.61
2022-12-13T02:50:08.588Z,82.6
2022-12-13T02:55:08.407Z,82.6
2022-12-13T03:00:08.177Z,82.61
2022-12-13T03:05:07.961Z,82.59
2022-12-13T03:10:07.734Z,82.57
2022-12-13T03:15:09.937Z,82.58
2022-12-13T03:20:12.874Z,82.56
2022-12-13T03:25:07.752Z,82.58
2022-12-13T03:30:08.519Z,82.57
2022-12-13T03:35:22.160Z,82.57
2022-12-13T03:40:08.350Z,82.56
2022-12-13T03:45:08.103Z,82.57
2022-12-13T03:50:26.576Z,82.53
2022-12-13T03:55:08.125Z,82.56
2022-12-13T04:00:07.924Z,82.57
2022-12-13T04:05:08.723Z,82.57
2022-12-13T04:10:26.124Z,82.55
2022-12-13T04:15:08.482Z,82.57
2022-12-13T04:20:08.274Z,82.56
2022-12-13T04:25:08.042Z,82.53
2022-12-13T04:30:07.869Z,82.55
2022-12-13T04:35:08.637Z,82.52
2022-12-13T04:40:08.418Z,82.54
2022-12-13T04:45:08.210Z,82.51
2022-12-13T04:50:07.967Z,82.51
2022-12-13T04:55:07.732Z,82.56
2022-12-13T05:00:08.513Z,82.5
2022-12-13T05:05:02.587Z,82.49
2022-12-13T05:10:02.792Z,82.48
2022-12-13T05:15:03.206Z,82.48
2022-12-13T05:20:02.317Z,82.53
2022-12-13T05:25:02.200Z,82.57
2022-12-13T05:30:05.016Z,82.55
2022-12-13T05:35:02.895Z,82.56
2022-12-13T05:40:03.129Z,82.52
2022-12-13T05:45:02.173Z,82.53
2022-12-13T05:50:02.521Z,82.54
2022-12-13T05:55:02.589Z,82.54
2022-12-13T06:00:02.652Z,82.55
2022-12-13T06:05:02.819Z,82.53
2022-12-13T06:10:10.556Z,82.54
2022-12-13T06:15:03.190Z,82.53
2022-12-13T06:20:02.177Z,82.53
2022-12-13T06:25:03.497Z,82.52
2022-12-13T06:30:03.084Z,82.56
2022-12-13T06:35:27.097Z,82.53
2022-12-13T06:40:03.219Z,82.57
2022-12-13T06:45:02.253Z,82.57
2022-12-13T06:50:04.960Z,82.57
2022-12-13T06:55:02.826Z,82.57
2022-12-13T07:00:03.200Z,82.58
2022-12-13T07:05:02.272Z,82.55
2022-12-13T07:10:02.391Z,82.54
2022-12-13T07:15:02.347Z,82.58
2022-12-13T07:20:02.460Z,82.58
2022-12-13T07:25:02.633Z,82.54
2022-12-13T07:30:02.860Z,82.55
2022-12-13T07:35:03.497Z,82.55
2022-12-13T07:40:04.360Z,82.56
2022-12-13T07:45:02.966Z,82.53
2022-12-13T07:50:02.095Z,82.53
2022-12-13T07:55:02.176Z,82.52
2022-12-13T08:00:02.229Z,82.55
2022-12-13T08:05:25.946Z,82.52
2022-12-13T08:10:02.345Z,82.55
2022-12-13T08:15:02.444Z,82.54
2022-12-13T08:20:02.889Z,82.52
2022-12-13T08:25:03.265Z,82.51
2022-12-13T08:30:02.749Z,82.51
2022-12-13T08:35:02.786Z,82.53
2022-12-13T08:40:03.016Z,82.53
2022-12-13T08:45:02.143Z,82.53
2022-12-13T08:50:04.178Z,82.52
2022-12-13T08:55:02.735Z,82.54
2022-12-13T09:00:02.779Z,82.54
2022-12-13T09:05:02.919Z,82.56
2022-12-13T09:10:25.209Z,82.58
2022-12-13T09:15:02.412Z,82.53
2022-12-13T09:20:02.368Z,82.61
2022-12-13T09:25:03.121Z,82.62
2022-12-13T09:30:02.393Z,82.61
2022-12-13T09:35:02.307Z,82.61
2022-12-13T09:40:16.076Z,82.6
2022-12-13T09:45:03.708Z,82.6
2022-12-13T09:50:03.646Z,82.58
2022-12-13T09:55:06.584Z,82.61
2022-12-13T10:00:02.719Z,82.63
2022-12-13T10:05:21.607Z,82.62
2022-12-13T10:10:02.819Z,82.61
2022-12-13T10:15:03.058Z,82.62
2022-12-13T10:20:02.171Z,82.58
2022-12-13T10:25:02.148Z,82.58
2022-12-13T10:30:02.390Z,82.57
2022-12-13T10:35:03.229Z,82.54
2022-12-13T10:40:02.712Z,82.54
2022-12-13T10:45:02.850Z,82.53
2022-12-13T10:50:03.024Z,82.49
2022-12-13T10:55:02.245Z,82.52
2022-12-13T11:00:02.718Z,82.52
2022-12-13T11:05:06.720Z,82.5
2022-12-13T11:10:05.338Z,82.5
2022-12-13T11:15:03.065Z,82.48
2022-12-13T11:20:02.400Z,82.49
2022-12-13T11:25:08.357Z,82.48
2022-12-13T11:30:02.662Z,82.48
2022-12-13T11:35:02.836Z,82.5
2022-12-13T11:40:02.848Z,82.49
2022-12-13T11:45:02.835Z,82.46
2022-12-13T11:50:02.876Z,82.43
2022-12-13T11:55:04.301Z,82.45
2022-12-13T12:00:16.584Z,82.42
2022-12-13T12:05:02.319Z,82.44
2022-12-13T12:10:02.359Z,82.42
2022-12-13T12:15:05.362Z,82.43
2022-12-13T12:20:01.971Z,82.43
2022-12-13T12:25:12.154Z,82.44
2022-12-13T12:30:02.252Z,82.45
2022-12-13T12:35:02.510Z,82.46
2022-12-13T12:40:02.778Z,82.49
2022-12-13T12:45:02.913Z,82.49
2022-12-13T12:50:02.882Z,82.49
2022-12-13T12:55:12.603Z,82.48
2022-12-13T13:00:02.771Z,82.47
2022-12-13T13:05:02.681Z,82.5
2022-12-13T13:10:16.580Z,82.52
2022-12-13T13:15:03.080Z,82.55
2022-12-13T13:20:11.444Z,82.55
2022-12-13T13:25:02.806Z,82.53
2022-12-13T13:30:02.988Z,82.56
2022-12-13T13:35:02.392Z,82.56
2022-12-13T13:40:02.688Z,82.54
2022-12-13T13:45:02.929Z,82.51
2022-12-13T13:50:03.242Z,82.54
2022-12-13T13:55:02.247Z,82.56
2022-12-13T14:00:02.713Z,82.59
2022-12-13T14:05:02.944Z,82.58
2022-12-13T14:10:03.394Z,82.56
2022-12-13T14:15:02.794Z,82.57
2022-12-13T14:20:03.245Z,82.59
2022-12-13T14:25:02.671Z,82.6
2022-12-13T14:30:27.531Z,82.57
2022-12-13T14:35:25.663Z,82.57
2022-12-13T14:40:02.806Z,82.57
2022-12-13T14:45:02.934Z,82.55
2022-12-13T14:50:03.180Z,82.58
2022-12-13T14:55:03.166Z,82.57
2022-12-13T15:00:03.109Z,82.6
2022-12-13T15:05:01.864Z,82.64
2022-12-13T15:10:04.552Z,82.61
2022-12-13T15:15:04.437Z,82.58
2022-12-13T15:20:02.622Z,82.67
2022-12-13T15:25:03.263Z,82.59
2022-12-13T15:30:02.782Z,82.58
2022-12-13T15:35:03.183Z,82.57
2022-12-13T15:40:02.549Z,82.57
2022-12-13T15:45:02.500Z,82.55
2022-12-13T15:50:02.776Z,82.64
2022-12-13T15:55:08.547Z,82.67
2022-12-13T16:00:02.790Z,82.6
2022-12-13T16:05:02.994Z,82.58
2022-12-13T16:10:02.287Z,82.58
2022-12-13T16:15:09.502Z,82.58
2022-12-13T16:20:09.383Z,82.6
2022-12-13T16:25:02.820Z,82.61
2022-12-13T16:30:02.970Z,82.62
2022-12-13T16:35:01.978Z,82.62
2022-12-13T16:40:01.950Z,82.63
2022-12-13T16:45:39.560Z,82.63
2022-12-13T16:50:02.760Z,82.63
2022-12-13T16:55:02.731Z,82.63
2022-12-13T17:00:02.655Z,82.62
2022-12-13T17:05:02.555Z,82.63
2022-12-13T17:10:02.402Z,82.65
2022-12-13T17:15:02.561Z,82.65
2022-12-13T17:20:02.457Z,82.65
2022-12-13T17:25:02.403Z,82.65
2022-12-13T17:30:02.331Z,82.65
2022-12-13T17:35:02.936Z,82.65
2022-12-13T17:40:01.892Z,82.65
2022-12-13T17:45:02.820Z,82.66
2022-12-13T17:50:02.648Z,82.67
2022-12-13T17:55:02.506Z,82.65
2022-12-13T18:00:02.424Z,82.66
2022-12-13T18:05:02.436Z,82.65
2022-12-13T18:10:02.239Z,82.65
2022-12-13T18:15:02.151Z,82.65
2022-12-13T18:20:02.144Z,82.63
2022-12-13T18:25:02.075Z,82.63
2022-12-13T18:30:01.913Z,82.64
2022-12-13T18:35:02.871Z,82.62
2022-12-13T18:40:02.876Z,82.64
2022-12-13T18:45:02.954Z,82.64
2022-12-13T18:50:01.934Z,82.63
2022-12-13T18:55:02.973Z,82.66
2022-12-13T19:00:01.919Z,82.65
2022-12-13T19:05:03.063Z,82.67
2022-12-13T19:10:02.143Z,82.65
2022-12-13T19:15:01.982Z,82.63
2022-12-13T19:20:01.979Z,82.66
2022-12-13T19:25:01.849Z,82.65
2022-12-13T19:30:02.684Z,82.65
2022-12-13T19:35:02.503Z,82.68
2022-12-13T19:40:02.353Z,82.65
2022-12-13T19:45:02.254Z,82.66
2022-12-13T19:50:02.099Z,82.66
2022-12-13T19:55:02.075Z,82.66
2022-12-13T20:00:02.051Z,82.67
2022-12-13T20:05:01.883Z,82.66
2022-12-13T20:10:02.935Z,82.65
2022-12-13T20:15:02.819Z,82.67
2022-12-13T20:20:02.880Z,82.66
2022-12-13T20:25:02.767Z,82.67
2022-12-13T20:30:02.686Z,82.66
2022-12-13T20:35:02.685Z,82.65
2022-12-13T20:40:02.573Z,82.67
2022-12-13T20:45:02.523Z,82.65
2022-12-13T20:50:02.420Z,82.66
2022-12-13T20:55:02.369Z,82.67
2022-12-13T21:00:02.316Z,82.66
2022-12-13T21:05:02.228Z,82.68
2022-12-13T21:10:02.240Z,82.66
2022-12-13T21:15:02.112Z,82.69
2022-12-13T21:20:02.151Z,82.66
2022-12-13T21:25:02.366Z,82.66
2022-12-13T21:30:02.397Z,82.67
2022-12-13T21:35:02.521Z,82.65
2022-12-13T21:40:02.572Z,82.65
2022-12-13T21:45:02.743Z,82.65
2022-12-13T21:50:02.821Z,82.67
2022-12-13T21:55:30.461Z,82.66
2022-12-13T22:00:02.074Z,82.67
2022-12-13T22:05:14.840Z,82.67
2022-12-13T22:10:08.657Z,82.67
2022-12-13T22:15:08.464Z,82.7
2022-12-13T22:20:08.394Z,82.71
2022-12-13T22:25:08.249Z,82.67
2022-12-13T22:30:08.053Z,82.67
2022-12-13T22:35:07.874Z,82.67
2022-12-13T22:40:08.726Z,82.68
2022-12-13T22:45:08.504Z,82.68
2022-12-13T22:50:08.300Z,82.67
2022-12-13T22:55:08.131Z,82.66
2022-12-13T23:00:07.929Z,82.67
2022-12-13T23:05:08.700Z,82.68
2022-12-13T23:10:08.510Z,82.68
2022-12-13T23:15:08.291Z,82.71
2022-12-13T23:20:08.169Z,82.71
2022-12-13T23:25:07.956Z,82.71
2022-12-13T23:30:07.754Z,82.69
2022-12-13T23:35:08.543Z,82.69
2022-12-13T23:40:08.348Z,82.69
2022-12-13T23:45:08.146Z,82.7
2022-12-13T23:50:07.951Z,82.7
2022-12-13T23:55:07.745Z,82.71
